createdAt,value
2023-03-26T00:00:48.704Z,99745.31
2023-03-26T00:04:13.496Z,99746.06
2023-03-26T00:07:16.726Z,99735.75
2023-03-26T00:10:19.848Z,99735.56
2023-03-26T00:13:22.502Z,99732.81
2023-03-26T00:16:29.744Z,99733.91
2023-03-26T00:19:32.551Z,99730.31
2023-03-26T00:22:35.632Z,99736.75
2023-03-26T00:25:41.619Z,99741.75
2023-03-26T00:28:44.738Z,99721.66
2023-03-26T00:31:47.319Z,99740.88
2023-03-26T00:34:52.056Z,99737.34
2023-03-26T00:37:54.772Z,99732.91
2023-03-26T00:41:06.238Z,99738.12
2023-03-26T00:44:09.723Z,99732.88
2023-03-26T00:47:13.355Z,99724.31
2023-03-26T00:50:16.395Z,99725.78
2023-03-26T00:53:20.139Z,99718.06
2023-03-26T00:56:22.859Z,99711.25
2023-03-26T00:59:30.477Z,99716.50
2023-03-26T01:02:33.286Z,99710.19
2023-03-26T01:05:44.422Z,99708.44
2023-03-26T01:08:52.940Z,99700.69
2023-03-26T01:11:56.218Z,99703.19
2023-03-26T01:15:01.425Z,99705.88
2023-03-26T01:18:09.888Z,99699.06
2023-03-26T01:21:13.959Z,99708.53
2023-03-26T01:24:17.115Z,99712.06
2023-03-26T01:27:24.410Z,99711.94
2023-03-26T01:30:38.798Z,99713.06
2023-03-26T01:33:41.613Z,99713.06
2023-03-26T01:36:50.798Z,99712.75
2023-03-26T01:39:57.609Z,99707.62
2023-03-26T01:43:11.226Z,99707.50
2023-03-26T01:46:16.542Z,99724.09
2023-03-26T01:49:20.573Z,99725.00
2023-03-26T01:52:26.115Z,99721.63
2023-03-26T01:55:54.009Z,99710.19
2023-03-26T01:59:20.141Z,99706.66
2023-03-26T02:03:02.184Z,99708.41
2023-03-26T02:06:16.402Z,99720.72
2023-03-26T02:09:25.057Z,99723.22
2023-03-26T02:12:29.625Z,99727.56
2023-03-26T02:15:33.173Z,99725.66
2023-03-26T02:18:41.765Z,99726.50
2023-03-26T02:21:46.031Z,99727.34
2023-03-26T02:24:48.792Z,99737.75
2023-03-26T02:27:53.151Z,99732.59
2023-03-26T02:30:57.723Z,99737.09
2023-03-26T02:34:00.902Z,99732.91
2023-03-26T02:37:03.933Z,99724.69
2023-03-26T02:40:11.327Z,99727.25
2023-03-26T02:43:14.174Z,99713.22
2023-03-26T02:46:19.466Z,99719.34
2023-03-26T02:49:23.693Z,99714.03
2023-03-26T02:52:27.513Z,99705.25
2023-03-26T02:55:31.390Z,99704.25
2023-03-26T02:58:35.773Z,99705.94
2023-03-26T03:01:42.782Z,99702.66
2023-03-26T03:04:46.215Z,99703.47
2023-03-26T03:07:48.818Z,99706.72
2023-03-26T03:11:02.730Z,99707.50
2023-03-26T03:14:05.641Z,99704.69
2023-03-26T03:17:08.761Z,99711.63
2023-03-26T03:20:12.027Z,99714.16
2023-03-26T03:23:16.061Z,99721.00
2023-03-26T03:26:23.194Z,99720.03
2023-03-26T03:29:26.474Z,99721.72
2023-03-26T03:32:29.816Z,99711.37
2023-03-26T03:35:33.772Z,99716.63
2023-03-26T03:38:41.481Z,99712.31
2023-03-26T03:41:44.814Z,99715.75
2023-03-26T03:44:47.862Z,99707.00
2023-03-26T03:47:53.245Z,99714.78
2023-03-26T03:50:57.019Z,99733.00
2023-03-26T03:54:00.498Z,99735.00
2023-03-26T03:57:03.667Z,99730.44
2023-03-26T04:00:09.178Z,99736.16
2023-03-26T04:03:19.579Z,99733.97
2023-03-26T04:06:38.784Z,99734.16
2023-03-26T04:09:41.711Z,99728.78
2023-03-26T04:12:45.722Z,99736.69
2023-03-26T04:15:48.990Z,99745.97
2023-03-26T04:18:52.060Z,99734.22
2023-03-26T04:21:54.541Z,99737.03
2023-03-26T04:24:57.646Z,99744.09
2023-03-26T04:28:06.532Z,99739.28
2023-03-26T04:31:15.794Z,99732.56
2023-03-26T04:34:26.686Z,99731.84
2023-03-26T04:37:36.617Z,99731.47
2023-03-26T04:40:39.867Z,99735.81
2023-03-26T04:43:47.392Z,99735.00
2023-03-26T04:46:52.974Z,99739.00
2023-03-26T04:49:56.552Z,99745.97
2023-03-26T04:52:59.420Z,99745.88
2023-03-26T04:56:33.731Z,99743.53
2023-03-26T04:59:41.446Z,99744.25
2023-03-26T05:02:46.488Z,99753.91
2023-03-26T05:05:49.823Z,99749.06
2023-03-26T05:08:52.947Z,99741.78
2023-03-26T05:11:58.413Z,99732.38
2023-03-26T05:15:01.719Z,99731.94
2023-03-26T05:18:05.050Z,99728.88
2023-03-26T05:21:08.710Z,99727.56
2023-03-26T05:24:11.385Z,99727.75
2023-03-26T05:27:20.264Z,99730.81
2023-03-26T05:30:23.042Z,99743.41
2023-03-26T05:33:26.390Z,99737.59
2023-03-26T05:36:29.853Z,99724.81
2023-03-26T05:39:35.603Z,99723.50
2023-03-26T05:42:40.653Z,99730.75
2023-03-26T05:45:47.342Z,99726.63
2023-03-26T05:48:52.104Z,99732.88
2023-03-26T05:51:55.637Z,99733.81
2023-03-26T05:54:59.742Z,99734.44
2023-03-26T05:58:15.499Z,99736.50
2023-03-26T06:01:26.454Z,99733.75
2023-03-26T06:04:32.894Z,99734.22
2023-03-26T06:07:36.158Z,99718.16
2023-03-26T06:10:39.581Z,99723.56
2023-03-26T06:13:42.769Z,99719.87
2023-03-26T06:16:46.579Z,99725.31
2023-03-26T06:19:49.484Z,99723.47
2023-03-26T06:22:53.459Z,99713.84
2023-03-26T06:25:56.828Z,99719.37
2023-03-26T06:29:00.598Z,99722.94
2023-03-26T06:32:16.297Z,99708.28
2023-03-26T06:35:22.767Z,99708.62
2023-03-26T06:38:25.450Z,99705.38
2023-03-26T06:41:29.840Z,99712.66
2023-03-26T06:44:32.675Z,99718.09
2023-03-26T06:47:38.352Z,99713.19
2023-03-26T06:50:42.972Z,99717.19
2023-03-26T06:53:46.377Z,99719.59
2023-03-26T06:56:51.540Z,99709.63
2023-03-26T06:59:55.236Z,99717.06
2023-03-26T07:03:06.231Z,99718.25
2023-03-26T07:06:19.725Z,99705.22
2023-03-26T07:09:25.576Z,99710.91
2023-03-26T07:12:29.943Z,99711.16
2023-03-26T07:15:32.891Z,99704.47
2023-03-26T07:18:37.877Z,99692.53
2023-03-26T07:21:42.198Z,99698.84
2023-03-26T07:24:46.403Z,99693.84
2023-03-26T07:27:59.193Z,99701.88
2023-03-26T07:31:14.686Z,99692.28
2023-03-26T07:34:46.226Z,99711.59
2023-03-26T07:38:06.276Z,99714.25
2023-03-26T07:41:14.045Z,99716.88
2023-03-26T07:44:58.956Z,99717.84
2023-03-26T07:48:04.555Z,99718.72
2023-03-26T07:51:08.559Z,99716.06
2023-03-26T07:54:14.292Z,99713.38
2023-03-26T07:57:38.648Z,99715.12
2023-03-26T08:00:52.416Z,99719.41
2023-03-26T08:04:24.950Z,99729.03
2023-03-26T08:07:51.644Z,99715.12
2023-03-26T08:11:12.750Z,99715.12
2023-03-26T08:14:35.528Z,99730.12
2023-03-26T08:18:00.196Z,99717.81
2023-03-26T08:21:14.286Z,99706.34
2023-03-26T08:24:22.954Z,99718.59
2023-03-26T08:27:40.339Z,99710.69
2023-03-26T08:30:44.095Z,99702.81
2023-03-26T08:33:46.857Z,99706.34
2023-03-26T08:36:49.964Z,99707.22
2023-03-26T08:39:52.745Z,99710.63
2023-03-26T08:43:26.818Z,99705.22
2023-03-26T08:47:03.559Z,99700.66
2023-03-26T08:50:09.832Z,99707.50
2023-03-26T08:53:39.439Z,99711.69
2023-03-26T08:57:18.534Z,99705.53
2023-03-26T09:00:45.528Z,99697.81
2023-03-26T09:04:26.199Z,99691.88
2023-03-26T09:08:05.423Z,99692.91
2023-03-26T09:11:47.425Z,99686.13
2023-03-26T09:15:28.514Z,99686.16
2023-03-26T09:18:50.771Z,99680.94
2023-03-26T09:22:30.415Z,99677.31
2023-03-26T09:26:12.194Z,99678.84
2023-03-26T09:29:32.799Z,99679.97
2023-03-26T09:33:22.975Z,99659.75
2023-03-26T09:37:05.901Z,99669.44
2023-03-26T09:40:19.156Z,99666.81
2023-03-26T09:43:46.390Z,99656.25
2023-03-26T09:47:14.358Z,99655.44
2023-03-26T09:50:37.257Z,99645.75
2023-03-26T09:53:59.071Z,99643.03
2023-03-26T09:57:13.335Z,99637.06
2023-03-26T10:00:42.857Z,99632.94
2023-03-26T10:03:57.992Z,99629.34
2023-03-26T10:07:22.322Z,99624.38
2023-03-26T10:10:52.224Z,99607.75
2023-03-26T10:14:05.665Z,99598.44
2023-03-26T10:17:27.210Z,99591.97
2023-03-26T10:21:13.834Z,99595.44
2023-03-26T10:24:22.555Z,99598.75
2023-03-26T10:27:39.967Z,99595.19
2023-03-26T10:31:01.330Z,99591.19
2023-03-26T10:34:28.134Z,99607.13
2023-03-26T10:37:41.145Z,99612.41
2023-03-26T10:40:50.629Z,99616.56
2023-03-26T10:44:09.172Z,99613.59
2023-03-26T10:47:35.407Z,99598.41
2023-03-26T10:50:57.382Z,99598.44
2023-03-26T10:54:27.178Z,99581.28
2023-03-26T10:57:41.264Z,99589.59
2023-03-26T11:00:52.556Z,99581.63
2023-03-26T11:04:10.955Z,99566.72
2023-03-26T11:07:39.978Z,99557.84
2023-03-26T11:10:45.833Z,99554.25
2023-03-26T11:14:07.068Z,99541.91
2023-03-26T11:17:47.914Z,99542.91
2023-03-26T11:21:19.510Z,99534.22
2023-03-26T11:24:45.353Z,99530.75
2023-03-26T11:28:09.330Z,99523.44
2023-03-26T11:31:19.804Z,99506.53
2023-03-26T11:34:31.154Z,99502.53
2023-03-26T11:37:43.630Z,99501.72
2023-03-26T11:40:51.017Z,99491.59
2023-03-26T11:44:03.968Z,99483.84
2023-03-26T11:47:10.670Z,99470.41
2023-03-26T11:50:20.683Z,99474.97
2023-03-26T11:53:29.221Z,99470.97
2023-03-26T11:56:37.035Z,99460.06
2023-03-26T11:59:56.246Z,99465.13
2023-03-26T12:03:00.486Z,99439.91
2023-03-26T12:06:04.766Z,99437.22
2023-03-26T12:09:20.133Z,99431.13
2023-03-26T12:12:46.041Z,99410.81
2023-03-26T12:15:49.536Z,99408.44
2023-03-26T12:19:18.562Z,99398.13
2023-03-26T12:22:36.484Z,99396.78
2023-03-26T12:25:39.921Z,99387.31
2023-03-26T12:28:46.501Z,99374.59
2023-03-26T12:32:07.298Z,99366.28
2023-03-26T12:35:26.788Z,99374.66
2023-03-26T12:38:33.416Z,99375.28
2023-03-26T12:44:44.625Z,99355.50
2023-03-26T12:45:06.889Z,99349.03
2023-03-26T12:48:15.913Z,99334.34
2023-03-26T12:51:41.911Z,99330.87
2023-03-26T12:54:53.693Z,99324.75
2023-03-26T12:58:00.027Z,99323.13
2023-03-26T13:01:36.625Z,99321.34
2023-03-26T13:05:13.300Z,99326.19
2023-03-26T13:08:36.895Z,99317.03
2023-03-26T13:11:48.984Z,99325.59
2023-03-26T13:15:00.866Z,99304.06
2023-03-26T13:18:25.339Z,99294.34
2023-03-26T13:21:46.777Z,99287.69
2023-03-26T13:25:06.892Z,99276.47
2023-03-26T13:28:26.671Z,99267.25
2023-03-26T13:31:44.262Z,99270.88
2023-03-26T13:35:09.580Z,99258.00
2023-03-26T13:38:29.280Z,99259.06
2023-03-26T13:41:47.261Z,99248.72
2023-03-26T13:45:20.839Z,99241.13
2023-03-26T13:48:28.488Z,99238.66
2023-03-26T13:51:59.247Z,99238.06
2023-03-26T13:55:01.716Z,99239.28
2023-03-26T13:58:10.944Z,99234.53
2023-03-26T14:01:19.557Z,99232.59
2023-03-26T14:04:32.276Z,99217.34
2023-03-26T14:07:43.118Z,99221.59
2023-03-26T14:10:52.849Z,99219.47
2023-03-26T14:14:04.210Z,99208.94
2023-03-26T14:17:46.471Z,99200.78
2023-03-26T14:21:17.140Z,99194.63
2023-03-26T14:24:35.545Z,99194.97
2023-03-26T14:27:51.056Z,99169.72
2023-03-26T14:30:58.085Z,99175.56
2023-03-26T14:34:16.172Z,99182.75
2023-03-26T14:37:40.671Z,99182.97
2023-03-26T14:41:10.985Z,99167.97
2023-03-26T14:44:47.678Z,99170.41
2023-03-26T14:48:19.584Z,99164.25
2023-03-26T14:51:37.924Z,99152.03
2023-03-26T14:54:44.738Z,99158.50
2023-03-26T14:58:09.266Z,99155.97
2023-03-26T15:01:20.913Z,99156.84
2023-03-26T15:04:46.502Z,99140.22
2023-03-26T15:08:19.941Z,99128.81
2023-03-26T15:11:46.350Z,99133.34
2023-03-26T15:15:07.146Z,99127.34
2023-03-26T15:18:47.585Z,99112.47
2023-03-26T15:22:26.041Z,99110.84
2023-03-26T15:25:48.366Z,99109.97
2023-03-26T15:28:56.864Z,99103.00
2023-03-26T15:32:30.284Z,99099.44
2023-03-26T15:35:44.369Z,99089.91
2023-03-26T15:38:56.719Z,99079.41
2023-03-26T15:42:17.840Z,99078.59
2023-03-26T15:45:30.381Z,99078.59
2023-03-26T15:48:37.458Z,99080.41
2023-03-26T15:51:53.698Z,99082.19
2023-03-26T15:55:31.151Z,99074.28
2023-03-26T15:58:45.259Z,99079.56
2023-03-26T16:02:12.155Z,99071.84
2023-03-26T16:05:19.616Z,99064.78
2023-03-26T16:08:38.746Z,99058.66
2023-03-26T16:11:54.110Z,99052.56
2023-03-26T16:15:07.542Z,99036.81
2023-03-26T16:18:12.039Z,99042.94
2023-03-26T16:21:36.534Z,99035.13
2023-03-26T16:24:44.633Z,99015.03
2023-03-26T16:27:47.394Z,99006.41
2023-03-26T16:31:23.414Z,99004.63
2023-03-26T16:34:49.805Z,99009.00
2023-03-26T16:38:11.524Z,99009.09
2023-03-26T16:41:29.809Z,99011.84
2023-03-26T16:44:51.992Z,99006.59
2023-03-26T16:48:09.653Z,99003.09
2023-03-26T16:51:38.931Z,99013.69
2023-03-26T16:54:47.382Z,99013.69
2023-03-26T16:58:17.155Z,99020.72
2023-03-26T17:01:57.621Z,99011.94
2023-03-26T17:05:26.727Z,99014.69
2023-03-26T17:08:53.371Z,99014.69
2023-03-26T17:12:19.864Z,99017.31
2023-03-26T17:15:42.312Z,99008.59
2023-03-26T17:18:57.671Z,99017.34
2023-03-26T17:22:18.622Z,99022.62
2023-03-26T17:25:24.840Z,99016.53
2023-03-26T17:28:47.008Z,99019.97
2023-03-26T17:32:12.347Z,99018.25
2023-03-26T17:35:15.545Z,99019.16
2023-03-26T17:38:18.682Z,99020.91
2023-03-26T17:41:56.468Z,99020.91
2023-03-26T17:45:17.620Z,99018.28
2023-03-26T17:48:23.959Z,99015.69
2023-03-26T17:51:47.346Z,99022.72
2023-03-26T17:54:53.287Z,99014.81
2023-03-26T17:58:01.757Z,99012.19
2023-03-26T18:01:34.777Z,99012.19
2023-03-26T18:04:42.186Z,99015.69
2023-03-26T18:07:47.971Z,99012.19
2023-03-26T18:11:15.703Z,99014.81
2023-03-26T18:14:24.348Z,99016.59
2023-03-26T18:17:38.495Z,99016.56
2023-03-26T18:20:43.889Z,99017.44
2023-03-26T18:23:50.674Z,99004.31
2023-03-26T18:27:01.743Z,99007.84
2023-03-26T18:30:18.989Z,99008.72
2023-03-26T18:33:21.560Z,99006.94
2023-03-26T18:36:27.625Z,99006.03
2023-03-26T18:39:30.122Z,98993.81
2023-03-26T18:42:34.120Z,98987.72
2023-03-26T18:45:39.410Z,98985.94
2023-03-26T18:48:44.094Z,98987.72
2023-03-26T18:51:56.729Z,98984.22
2023-03-26T18:55:02.969Z,98977.22
2023-03-26T18:58:30.114Z,98973.72
2023-03-26T19:01:36.621Z,98961.47
2023-03-26T19:04:41.765Z,98957.09
2023-03-26T19:07:50.310Z,98944.88
2023-03-26T19:10:54.656Z,98940.47
2023-03-26T19:14:06.998Z,98944.84
2023-03-26T19:17:11.802Z,98937.00
2023-03-26T19:20:20.077Z,98934.37
2023-03-26T19:23:28.732Z,98935.25
2023-03-26T19:26:32.540Z,98930.88
2023-03-26T19:29:36.552Z,98925.63
2023-03-26T19:32:39.803Z,98923.91
2023-03-26T19:35:44.100Z,98925.66
2023-03-26T19:38:53.027Z,98918.63
2023-03-26T19:41:55.710Z,98913.41
2023-03-26T19:45:02.182Z,98902.03
2023-03-26T19:48:14.989Z,98895.94
2023-03-26T19:51:20.401Z,98887.16
2023-03-26T19:54:23.053Z,98882.81
2023-03-26T19:57:26.245Z,98877.56
2023-03-26T20:00:28.765Z,98868.81
2023-03-26T20:03:40.387Z,98867.09
2023-03-26T20:06:44.297Z,98858.34
2023-03-26T20:09:52.254Z,98849.59
2023-03-26T20:12:55.631Z,98840.88
2023-03-26T20:16:06.077Z,98836.53
2023-03-26T20:19:11.128Z,98823.41
2023-03-26T20:22:23.634Z,98821.66
2023-03-26T20:25:34.150Z,98816.41
2023-03-26T20:28:47.365Z,98803.31
2023-03-26T20:31:51.269Z,98801.59
2023-03-26T20:34:54.928Z,98802.44
2023-03-26T20:37:57.590Z,98790.16
2023-03-26T20:41:00.594Z,98792.81
2023-03-26T20:44:05.057Z,98792.84
2023-03-26T20:47:10.939Z,98784.13
2023-03-26T20:50:15.679Z,98777.12
2023-03-26T20:53:20.362Z,98779.75
2023-03-26T20:56:23.569Z,98771.00
2023-03-26T20:59:28.253Z,98764.91
2023-03-26T21:02:31.012Z,98764.03
2023-03-26T21:05:35.341Z,98761.44
2023-03-26T21:08:38.343Z,98755.31
2023-03-26T21:11:47.326Z,98751.81
2023-03-26T21:14:50.127Z,98748.34
2023-03-26T21:17:55.033Z,98748.34
2023-03-26T21:21:32.118Z,98748.34
2023-03-26T21:25:15.338Z,98746.56
2023-03-26T21:28:42.863Z,98754.44
2023-03-26T21:31:46.786Z,98770.16
2023-03-26T21:34:58.589Z,98790.22
2023-03-26T21:38:06.342Z,98797.22
2023-03-26T21:41:20.816Z,98803.25
2023-03-26T21:44:24.223Z,98795.47
2023-03-26T21:47:27.173Z,98798.94
2023-03-26T21:50:30.639Z,98801.53
2023-03-26T21:53:35.538Z,98803.25
2023-03-26T21:56:56.686Z,98811.13
2023-03-26T22:00:23.686Z,98800.66
2023-03-26T22:03:37.749Z,98798.03
2023-03-26T22:06:54.775Z,98796.28
2023-03-26T22:09:57.874Z,98798.88
2023-03-26T22:13:00.447Z,98789.28
2023-03-26T22:16:04.906Z,98794.50
2023-03-26T22:19:08.612Z,98775.31
2023-03-26T22:22:12.547Z,98772.66
2023-03-26T22:25:17.753Z,98770.03
2023-03-26T22:28:20.871Z,98776.16
2023-03-26T22:31:27.179Z,98772.69
2023-03-26T22:34:30.699Z,98775.31
2023-03-26T22:37:35.708Z,98775.28
2023-03-26T22:40:39.229Z,98765.72
2023-03-26T22:43:41.750Z,98766.53
2023-03-26T22:46:47.360Z,98767.38
2023-03-26T22:49:49.893Z,98754.28
2023-03-26T22:52:52.953Z,98744.59
2023-03-26T22:55:55.515Z,98741.97
2023-03-26T22:58:58.911Z,98734.94
2023-03-26T23:02:01.575Z,98733.16
2023-03-26T23:05:04.864Z,98729.66
2023-03-26T23:08:07.875Z,98717.47
2023-03-26T23:11:19.356Z,98720.97
2023-03-26T23:14:22.261Z,98720.78
2023-03-26T23:17:25.855Z,98725.03
2023-03-26T23:20:29.999Z,98720.50
2023-03-26T23:23:34.968Z,98712.41
2023-03-26T23:26:49.443Z,98708.97
2023-03-26T23:29:53.510Z,98701.06
2023-03-26T23:32:57.304Z,98700.16
2023-03-26T23:36:04.316Z,98699.31
2023-03-26T23:39:11.003Z,98701.16
2023-03-26T23:42:14.105Z,98699.38
2023-03-26T23:45:16.651Z,98693.19
2023-03-26T23:48:22.805Z,98691.41
2023-03-26T23:51:25.619Z,98677.38
2023-03-26T23:54:30.143Z,98662.50
2023-03-26T23:57:33.024Z,98658.94
